^^
Grace C. Lehan Memorial Weather Station Historical Data
Daily Summary for August 15, 2021 Units:  Both    English   Metric
Daily Weekly Monthly Yearly
  High: Low: Average:
Temperature: 34.4 °F /  1.3 °C 31.4 °F /  -0.3 °C 32.3 °F /  0.2 °C
Dew Point: 30.4 °F /  -0.9 °C 23.8 °F /  -4.6 °C 26.7 °F /  -2.9 °C
Humidity: 94% 72% 80%
Wind Speed: 4.2mph /  6.8km/h - 1.4mph /  2.3km/h
Wind Gust: 14mph /  22.5km/h - -
Wind- - South
Pressure: 30.25 in /  1024.3 hPa 30.01 in /  1016.1 hPa -
Precipitation: 0.01 in /  0.25 mm    
 
 
Tabular Data for August 15, 2021
Time Temperature Dew Point Pressure Wind Wind Speed Wind Gust Humidity Rainfall Rate (Hourly) solar
00:04 32.3 °F /  0.2 °C 24.6 °F /  -4.1 °C 30.24in /  1023.9hPa NNW 0.2mph /  0.3km/h 5mph /  8km/h 73% 0.00in /  0mm 0 W/m2
00:09 32.3 °F /  0.2 °C 24.6 °F /  -4.1 °C 30.24in /  1023.9hPa NNW 0.2mph /  0.3km/h 4mph /  6.4km/h 73% 0.00in /  0mm 0 W/m2
00:14 32.3 °F /  0.2 °C 24.6 °F /  -4.1 °C 30.24in /  1023.9hPa NNW 1.3mph /  2.1km/h 5mph /  8km/h 73% 0.00in /  0mm 0 W/m2
00:19 32.3 °F /  0.2 °C 24.6 °F /  -4.1 °C 30.25in /  1024.3hPa NNW 0.6mph /  1km/h 7mph /  11.3km/h 73% 0.00in /  0mm 0 W/m2
00:24 32.2 °F /  0.1 °C 24.6 °F /  -4.1 °C 30.25in /  1024.3hPa NNW 0.8mph /  1.3km/h 7mph /  11.3km/h 73% 0.00in /  0mm 0 W/m2
00:29 32.2 °F /  0.1 °C 24.6 °F /  -4.1 °C 30.24in /  1023.9hPa North 0.9mph /  1.4km/h 7mph /  11.3km/h 73% 0.00in /  0mm 0 W/m2
00:34 32.2 °F /  0.1 °C 24.6 °F /  -4.1 °C 30.24in /  1023.9hPa North 0.6mph /  1km/h 7mph /  11.3km/h 73% 0.00in /  0mm 0 W/m2
00:39 32.2 °F /  0.1 °C 24.6 °F /  -4.1 °C 30.24in /  1023.9hPa NNW 0.7mph /  1.1km/h 7mph /  11.3km/h 73% 0.00in /  0mm 0 W/m2
00:44 32.2 °F /  0.1 °C 24.5 °F /  -4.2 °C 30.24in /  1023.9hPa NNE 0.2mph /  0.3km/h 7mph /  11.3km/h 73% 0.00in /  0mm 0 W/m2
00:49 32.2 °F /  0.1 °C 24.5 °F /  -4.2 °C 30.23in /  1023.6hPa North 0.6mph /  1km/h 7mph /  11.3km/h 73% 0.00in /  0mm 0 W/m2
00:54 32.2 °F /  0.1 °C 24.5 °F /  -4.2 °C 30.23in /  1023.6hPa North 2mph /  3.2km/h 7mph /  11.3km/h 73% 0.00in /  0mm 0 W/m2
00:59 32.2 °F /  0.1 °C 24.5 °F /  -4.2 °C 30.23in /  1023.6hPa NNW 1.4mph /  2.3km/h 7mph /  11.3km/h 72.9% 0.00in /  0mm 0 W/m2
01:04 32.2 °F /  0.1 °C 24.4 °F /  -4.2 °C 30.23in /  1023.6hPa North 0.3mph /  0.5km/h 7mph /  11.3km/h 72.6% 0.00in /  0mm 0 W/m2
01:09 32.1 °F /  0.1 °C 24.5 °F /  -4.2 °C 30.23in /  1023.6hPa NNE 0.2mph /  0.3km/h 4mph /  6.4km/h 73% 0.00in /  0mm 0 W/m2
01:14 32.1 °F /  0.1 °C 24.4 °F /  -4.2 °C 30.23in /  1023.6hPa North 1.2mph /  1.9km/h 7mph /  11.3km/h 73% 0.00in /  0mm 0 W/m2
01:19 32.1 °F /  0.1 °C 24.4 °F /  -4.2 °C 30.23in /  1023.6hPa NNW 0.2mph /  0.3km/h 7mph /  11.3km/h 72.8% 0.00in /  0mm 0 W/m2
01:24 32.1 °F /  0.1 °C 24.3 °F /  -4.3 °C 30.23in /  1023.6hPa North 0.5mph /  0.8km/h 7mph /  11.3km/h 72.7% 0.00in /  0mm 0 W/m2
01:29 32.1 °F /  0.1 °C 24.4 °F /  -4.2 °C 30.23in /  1023.6hPa NNW 0.1mph /  0.2km/h 7mph /  11.3km/h 73% 0.00in /  0mm 0 W/m2
01:34 32.1 °F /  0.1 °C 24.4 °F /  -4.2 °C 30.23in /  1023.6hPa NNW 0.3mph /  0.5km/h 7mph /  11.3km/h 73% 0.00in /  0mm 0 W/m2
01:39 32.1 °F /  0.1 °C 24.4 °F /  -4.2 °C 30.24in /  1023.9hPa NNW 0.9mph /  1.4km/h 4mph /  6.4km/h 73% 0.00in /  0mm 0 W/m2
01:44 32 °F /  0 °C 24.4 °F /  -4.2 °C 30.24in /  1023.9hPa North 0.4mph /  0.6km/h 6mph /  9.7km/h 73% 0.00in /  0mm 0 W/m2
01:49 32 °F /  0 °C 24.3 °F /  -4.3 °C 30.23in /  1023.6hPa NNE 0.3mph /  0.5km/h 6mph /  9.7km/h 73% 0.00in /  0mm 0 W/m2
01:54 32.1 °F /  0.1 °C 24.4 °F /  -4.2 °C 30.22in /  1023.2hPa Calm   6mph /  9.7km/h 73% 0.00in /  0mm 0 W/m2
01:59 32.1 °F /  0.1 °C 24.4 °F /  -4.2 °C 30.22in /  1023.2hPa NNE 0.6mph /  1km/h 6mph /  9.7km/h 73% 0.00in /  0mm 0 W/m2
02:04 32.1 °F /  0.1 °C 24.3 °F /  -4.3 °C 30.22in /  1023.2hPa NNE 0.1mph /  0.2km/h 6mph /  9.7km/h 72.7% 0.00in /  0mm 0 W/m2
02:09 32.1 °F /  0.1 °C 24.4 °F /  -4.2 °C 30.21in /  1022.9hPa NNE 0.2mph /  0.3km/h 2mph /  3.2km/h 73% 0.00in /  0mm 0 W/m2
02:14 32.1 °F /  0.1 °C 24.4 °F /  -4.2 °C 30.22in /  1023.2hPa Calm   2mph /  3.2km/h 73% 0.00in /  0mm 0 W/m2
02:19 32.1 °F /  0.1 °C 24.4 °F /  -4.2 °C 30.22in /  1023.2hPa NNE 0.1mph /  0.2km/h 2mph /  3.2km/h 73% 0.00in /  0mm 0 W/m2
02:24 32 °F /  0 °C 24.4 °F /  -4.2 °C 30.22in /  1023.2hPa NNE 0.2mph /  0.3km/h 4mph /  6.4km/h 73% 0.00in /  0mm 0 W/m2
02:29 32 °F /  0 °C 24.3 °F /  -4.3 °C 30.22in /  1023.2hPa North 0.8mph /  1.3km/h 5mph /  8km/h 73% 0.00in /  0mm 0 W/m2
02:34 32 °F /  0 °C 24.1 °F /  -4.4 °C 30.21in /  1022.9hPa NE 0.4mph /  0.6km/h 5mph /  8km/h 72.2% 0.00in /  0mm 0 W/m2
02:39 32 °F /  0 °C 24.1 °F /  -4.4 °C 30.21in /  1022.9hPa NE 0.5mph /  0.8km/h 4mph /  6.4km/h 72.3% 0.00in /  0mm 0 W/m2
02:44 32 °F /  0 °C 24.3 °F /  -4.3 °C 30.20in /  1022.6hPa North 0.3mph /  0.5km/h 5mph /  8km/h 72.8% 0.00in /  0mm 0 W/m2
02:48 32 °F /  0 °C 24.3 °F /  -4.3 °C 30.20in /  1022.6hPa North 0.8mph /  1.3km/h 7mph /  11.3km/h 73% 0.00in /  0mm 0 W/m2
02:54 32 °F /  0 °C 24.3 °F /  -4.3 °C 30.21in /  1022.9hPa NNW 0.3mph /  0.5km/h 7mph /  11.3km/h 73% 0.00in /  0mm 0 W/m2
02:59 32 °F /  0 °C 24.2 °F /  -4.3 °C 30.21in /  1022.9hPa NNW 2.3mph /  3.7km/h 7mph /  11.3km/h 72.7% 0.00in /  0mm 0 W/m2
03:04 31.9 °F /  -0.1 °C 24.2 °F /  -4.3 °C 30.20in /  1022.6hPa NNW 2.4mph /  3.9km/h 9mph /  14.5km/h 72.7% 0.00in /  0mm 0 W/m2
03:09 31.9 °F /  -0.1 °C 23.9 °F /  -4.5 °C 30.20in /  1022.6hPa NNW 1.7mph /  2.7km/h 9mph /  14.5km/h 72% 0.00in /  0mm 0 W/m2
03:14 31.9 °F /  -0.1 °C 23.9 °F /  -4.5 °C 30.21in /  1022.9hPa NNW 1.8mph /  2.9km/h 9mph /  14.5km/h 72% 0.00in /  0mm 0 W/m2
03:19 31.9 °F /  -0.1 °C 23.9 °F /  -4.5 °C 30.21in /  1022.9hPa NNW 1.7mph /  2.7km/h 9mph /  14.5km/h 72% 0.00in /  0mm 0 W/m2
03:24 31.9 °F /  -0.1 °C 23.9 °F /  -4.5 °C 30.20in /  1022.6hPa NNW 0.2mph /  0.3km/h 9mph /  14.5km/h 72% 0.00in /  0mm 0 W/m2
03:29 31.8 °F /  -0.1 °C 23.9 °F /  -4.5 °C 30.20in /  1022.6hPa NNW 0.8mph /  1.3km/h 9mph /  14.5km/h 72% 0.00in /  0mm 0 W/m2
03:34 31.9 °F /  -0.1 °C 23.9 °F /  -4.5 °C 30.20in /  1022.6hPa NNW 0.8mph /  1.3km/h 9mph /  14.5km/h 72% 0.00in /  0mm 0 W/m2
03:39 31.9 °F /  -0.1 °C 24 °F /  -4.4 °C 30.20in /  1022.6hPa NNW 0.3mph /  0.5km/h 5mph /  8km/h 72.2% 0.00in /  0mm 0 W/m2
03:44 31.9 °F /  -0.1 °C 24.1 °F /  -4.4 °C 30.20in /  1022.6hPa North 1.7mph /  2.7km/h 7mph /  11.3km/h 72.5% 0.00in /  0mm 0 W/m2
03:49 31.9 °F /  -0.1 °C 23.9 °F /  -4.5 °C 30.21in /  1022.9hPa NNW 2.1mph /  3.4km/h 7mph /  11.3km/h 72% 0.00in /  0mm 0 W/m2
03:54 31.9 °F /  -0.1 °C 23.9 °F /  -4.5 °C 30.21in /  1022.9hPa NNW 0.2mph /  0.3km/h 7mph /  11.3km/h 72% 0.00in /  0mm 0 W/m2
03:59 31.9 °F /  -0.1 °C 24 °F /  -4.4 °C 30.21in /  1022.9hPa NNW 1.2mph /  1.9km/h 7mph /  11.3km/h 72.4% 0.00in /  0mm 0 W/m2
04:00 31.9 °F /  -0.1 °C 24.2 °F /  -4.3 °C 30.20in /  1022.6hPa NNW 2mph /  3.2km/h 7mph /  11.3km/h 73% 0.00in /  0mm 0 W/m2
04:09 31.8 °F /  -0.1 °C 24.2 °F /  -4.3 °C 30.21in /  1022.9hPa NNW 0.4mph /  0.6km/h 3mph /  4.8km/h 73% 0.00in /  0mm 0 W/m2
04:14 31.8 °F /  -0.1 °C 24.2 °F /  -4.3 °C 30.21in /  1022.9hPa NNW 1.2mph /  1.9km/h 10mph /  16.1km/h 73% 0.00in /  0mm 0 W/m2
04:19 31.8 °F /  -0.1 °C 24.2 °F /  -4.3 °C 30.21in /  1022.9hPa North 0.3mph /  0.5km/h 10mph /  16.1km/h 73% 0.00in /  0mm 0 W/m2
04:24 31.8 °F /  -0.1 °C 24.2 °F /  -4.3 °C 30.21in /  1022.9hPa NNW 1mph /  1.6km/h 10mph /  16.1km/h 73% 0.00in /  0mm 0 W/m2
04:29 31.8 °F /  -0.1 °C 24.2 °F /  -4.3 °C 30.20in /  1022.6hPa NE 0.5mph /  0.8km/h 10mph /  16.1km/h 73% 0.00in /  0mm 0 W/m2
04:34 31.8 °F /  -0.1 °C 24.1 °F /  -4.4 °C 30.20in /  1022.6hPa NE 1mph /  1.6km/h 10mph /  16.1km/h 72.9% 0.00in /  0mm 0 W/m2
04:39 31.8 °F /  -0.1 °C 23.8 °F /  -4.6 °C 30.20in /  1022.6hPa NE 0.9mph /  1.4km/h 6mph /  9.7km/h 72% 0.00in /  0mm 0 W/m2
04:44 31.9 °F /  -0.1 °C 23.9 °F /  -4.5 °C 30.20in /  1022.6hPa NE 1.6mph /  2.6km/h 6mph /  9.7km/h 72% 0.00in /  0mm 0 W/m2
04:49 31.9 °F /  -0.1 °C 23.9 °F /  -4.5 °C 30.19in /  1022.2hPa NE 2.2mph /  3.5km/h 7mph /  11.3km/h 72% 0.00in /  0mm 0 W/m2
04:54 31.8 °F /  -0.1 °C 23.9 °F /  -4.5 °C 30.20in /  1022.6hPa NE 1.7mph /  2.7km/h 7mph /  11.3km/h 72% 0.00in /  0mm 0 W/m2
04:59 31.8 °F /  -0.1 °C 24 °F /  -4.4 °C 30.20in /  1022.6hPa NNE 1.5mph /  2.4km/h 7mph /  11.3km/h 72.4% 0.00in /  0mm 0 W/m2
05:04 31.8 °F /  -0.1 °C 24 °F /  -4.4 °C 30.20in /  1022.6hPa NE 2.4mph /  3.9km/h 7mph /  11.3km/h 72.6% 0.00in /  0mm 0 W/m2
05:09 31.8 °F /  -0.1 °C 23.8 °F /  -4.6 °C 30.20in /  1022.6hPa NNE 2.8mph /  4.5km/h 9mph /  14.5km/h 72% 0.00in /  0mm 0 W/m2
05:14 31.8 °F /  -0.1 °C 23.9 °F /  -4.5 °C 30.20in /  1022.6hPa NNE 1.6mph /  2.6km/h 9mph /  14.5km/h 72.2% 0.00in /  0mm 0 W/m2
05:19 31.8 °F /  -0.1 °C 24 °F /  -4.4 °C 30.20in /  1022.6hPa Calm   9mph /  14.5km/h 72.5% 0.00in /  0mm 0 W/m2
05:24 31.8 °F /  -0.1 °C 24.1 °F /  -4.4 °C 30.20in /  1022.6hPa NE 1.1mph /  1.8km/h 9mph /  14.5km/h 73% 0.00in /  0mm 0 W/m2
05:29 31.8 °F /  -0.1 °C 24.1 °F /  -4.4 °C 30.19in /  1022.2hPa NE 1.4mph /  2.3km/h 9mph /  14.5km/h 73% 0.00in /  0mm 0 W/m2
05:34 31.8 °F /  -0.1 °C 24.1 °F /  -4.4 °C 30.20in /  1022.6hPa NNE 1.2mph /  1.9km/h 9mph /  14.5km/h 73% 0.00in /  0mm 0 W/m2
05:39 31.7 °F /  -0.2 °C 24.1 °F /  -4.4 °C 30.20in /  1022.6hPa NNE 2.3mph /  3.7km/h 6mph /  9.7km/h 73% 0.00in /  0mm 0 W/m2
05:44 31.7 °F /  -0.2 °C 24.1 °F /  -4.4 °C 30.21in /  1022.9hPa North 2.9mph /  4.7km/h 7mph /  11.3km/h 73% 0.00in /  0mm 0 W/m2
05:49 31.7 °F /  -0.2 °C 24.1 °F /  -4.4 °C 30.21in /  1022.9hPa North 1.5mph /  2.4km/h 7mph /  11.3km/h 73% 0.00in /  0mm 0 W/m2
05:54 31.7 °F /  -0.2 °C 24.1 °F /  -4.4 °C 30.22in /  1023.2hPa NNW 2.8mph /  4.5km/h 9mph /  14.5km/h 73% 0.00in /  0mm 0 W/m2
05:59 31.7 °F /  -0.2 °C 24.1 °F /  -4.4 °C 30.22in /  1023.2hPa North 1.7mph /  2.7km/h 9mph /  14.5km/h 73% 0.00in /  0mm 0 W/m2
06:04 31.7 °F /  -0.2 °C 24.1 °F /  -4.4 °C 30.22in /  1023.2hPa North 1.5mph /  2.4km/h 9mph /  14.5km/h 73% 0.00in /  0mm 0 W/m2
06:09 31.7 °F /  -0.2 °C 24.1 °F /  -4.4 °C 30.22in /  1023.2hPa North 2.1mph /  3.4km/h 11mph /  17.7km/h 73% 0.00in /  0mm 0 W/m2
06:14 31.7 °F /  -0.2 °C 24.1 °F /  -4.4 °C 30.22in /  1023.2hPa North 2mph /  3.2km/h 11mph /  17.7km/h 73% 0.00in /  0mm 0 W/m2
06:19 31.7 °F /  -0.2 °C 24.1 °F /  -4.4 °C 30.21in /  1022.9hPa North 2.4mph /  3.9km/h 11mph /  17.7km/h 73% 0.00in /  0mm 0 W/m2
06:24 31.7 °F /  -0.2 °C 24.1 °F /  -4.4 °C 30.21in /  1022.9hPa NNE 2mph /  3.2km/h 11mph /  17.7km/h 73% 0.00in /  0mm 0 W/m2
06:29 31.7 °F /  -0.2 °C 24.1 °F /  -4.4 °C 30.22in /  1023.2hPa NNE 1.5mph /  2.4km/h 11mph /  17.7km/h 73% 0.00in /  0mm 0 W/m2
06:34 31.7 °F /  -0.2 °C 24.1 °F /  -4.4 °C 30.22in /  1023.2hPa NNE 2.2mph /  3.5km/h 11mph /  17.7km/h 73% 0.00in /  0mm 0 W/m2
06:39 31.7 °F /  -0.2 °C 24 °F /  -4.4 °C 30.21in /  1022.9hPa NNW 2.1mph /  3.4km/h 11mph /  17.7km/h 73% 0.00in /  0mm 0 W/m2
06:44 31.6 °F /  -0.2 °C 24 °F /  -4.4 °C 30.22in /  1023.2hPa North 3.4mph /  5.5km/h 14mph /  22.5km/h 73% 0.00in /  0mm 0 W/m2
06:49 31.6 °F /  -0.2 °C 24.1 °F /  -4.4 °C 30.23in /  1023.6hPa NNW 3.3mph /  5.3km/h 14mph /  22.5km/h 73.6% 0.00in /  0mm 0 W/m2
06:54 31.6 °F /  -0.2 °C 24.4 °F /  -4.2 °C 30.23in /  1023.6hPa NNW 2.4mph /  3.9km/h 14mph /  22.5km/h 74.4% 0.00in /  0mm 0 W/m2
06:59 31.5 °F /  -0.3 °C 24.5 °F /  -4.2 °C 30.23in /  1023.6hPa NNW 1.4mph /  2.3km/h 14mph /  22.5km/h 75% 0.00in /  0mm 0 W/m2
07:04 31.5 °F /  -0.3 °C 24.5 °F /  -4.2 °C 30.22in /  1023.2hPa North 2.2mph /  3.5km/h 14mph /  22.5km/h 75.1% 0.00in /  0mm 5 W/m2
07:09 31.5 °F /  -0.3 °C 24.5 °F /  -4.2 °C 30.22in /  1023.2hPa NE 2.3mph /  3.7km/h 7mph /  11.3km/h 75% 0.00in /  0mm 9 W/m2
07:14 31.4 °F /  -0.3 °C 24.4 °F /  -4.2 °C 30.21in /  1022.9hPa NE 1.1mph /  1.8km/h 7mph /  11.3km/h 75% 0.00in /  0mm 11 W/m2
07:19 31.4 °F /  -0.3 °C 24.7 °F /  -4.1 °C 30.21in /  1022.9hPa NE 1.4mph /  2.3km/h 7mph /  11.3km/h 75.9% 0.00in /  0mm 16 W/m2
07:24 31.4 °F /  -0.3 °C 24.6 °F /  -4.1 °C 30.20in /  1022.6hPa NE 2.4mph /  3.9km/h 9mph /  14.5km/h 75.6% 0.00in /  0mm 21 W/m2
07:29 31.4 °F /  -0.3 °C 24.4 °F /  -4.2 °C 30.20in /  1022.6hPa NE 2.1mph /  3.4km/h 9mph /  14.5km/h 75% 0.00in /  0mm 26 W/m2
07:34 31.4 °F /  -0.3 °C 24.7 °F /  -4.1 °C 30.20in /  1022.6hPa NE 1.8mph /  2.9km/h 9mph /  14.5km/h 75.7% 0.00in /  0mm 30 W/m2
07:39 31.5 °F /  -0.3 °C 24.5 °F /  -4.2 °C 30.20in /  1022.6hPa NE 1.6mph /  2.6km/h 5mph /  8km/h 75% 0.00in /  0mm 39 W/m2
07:44 31.5 °F /  -0.3 °C 24.7 °F /  -4.1 °C 30.20in /  1022.6hPa NNE 2.1mph /  3.4km/h 5mph /  8km/h 75.4% 0.00in /  0mm 40 W/m2
07:49 31.6 °F /  -0.2 °C 24.6 °F /  -4.1 °C 30.20in /  1022.6hPa NNE 1.7mph /  2.7km/h 5mph /  8km/h 75.1% 0.00in /  0mm 49 W/m2
07:54 31.7 °F /  -0.2 °C 24.7 °F /  -4.1 °C 30.22in /  1023.2hPa North 1.3mph /  2.1km/h 5mph /  8km/h 75% 0.00in /  0mm 49 W/m2
07:59 31.9 °F /  -0.1 °C 24.8 °F /  -4 °C 30.23in /  1023.6hPa North 2mph /  3.2km/h 6mph /  9.7km/h 75% 0.00in /  0mm 35 W/m2
08:00 31.9 °F /  -0.1 °C 24.9 °F /  -3.9 °C 30.23in /  1023.6hPa Calm   6mph /  9.7km/h 75% 0.00in /  0mm 21 W/m2
08:09 31.9 °F /  -0.1 °C 24.6 °F /  -4.1 °C 30.23in /  1023.6hPa NNE 0.3mph /  0.5km/h 2mph /  3.2km/h 74% 0.00in /  0mm 28 W/m2
08:14 32 °F /  0 °C 24.7 °F /  -4.1 °C 30.23in /  1023.6hPa North 0.6mph /  1km/h 4mph /  6.4km/h 74% 0.00in /  0mm 32 W/m2
08:19 32 °F /  0 °C 24.7 °F /  -4.1 °C 30.23in /  1023.6hPa North 2.4mph /  3.9km/h 7mph /  11.3km/h 74% 0.00in /  0mm 33 W/m2
08:24 32 °F /  0 °C 24.7 °F /  -4.1 °C 30.23in /  1023.6hPa North 1mph /  1.6km/h 7mph /  11.3km/h 74% 0.00in /  0mm 32 W/m2
08:29 32 °F /  0 °C 24.7 °F /  -4.1 °C 30.23in /  1023.6hPa North 2.1mph /  3.4km/h 7mph /  11.3km/h 74% 0.00in /  0mm 37 W/m2
08:34 32 °F /  0 °C 24.7 °F /  -4.1 °C 30.23in /  1023.6hPa North 2mph /  3.2km/h 7mph /  11.3km/h 74% 0.00in /  0mm 39 W/m2
08:39 32.1 °F /  0.1 °C 24.5 °F /  -4.2 °C 30.23in /  1023.6hPa North 3.2mph /  5.1km/h 8mph /  12.9km/h 73.3% 0.00in /  0mm 46 W/m2
08:44 32 °F /  0 °C 24.4 °F /  -4.2 °C 30.22in /  1023.2hPa NNE 2.2mph /  3.5km/h 9mph /  14.5km/h 73% 0.00in /  0mm 49 W/m2
08:49 32 °F /  0 °C 24.3 °F /  -4.3 °C 30.22in /  1023.2hPa North 2.2mph /  3.5km/h 9mph /  14.5km/h 73% 0.00in /  0mm 44 W/m2
08:54 32 °F /  0 °C 24.3 °F /  -4.3 °C 30.22in /  1023.2hPa North 2.8mph /  4.5km/h 9mph /  14.5km/h 73% 0.00in /  0mm 40 W/m2
08:59 32 °F /  0 °C 24.3 °F /  -4.3 °C 30.22in /  1023.2hPa North 1.2mph /  1.9km/h 9mph /  14.5km/h 73% 0.00in /  0mm 40 W/m2
09:04 32 °F /  0 °C 24.4 °F /  -4.2 °C 30.22in /  1023.2hPa North 1.2mph /  1.9km/h 9mph /  14.5km/h 73% 0.00in /  0mm 42 W/m2
09:09 32.1 °F /  0.1 °C 24.4 °F /  -4.2 °C 30.23in /  1023.6hPa NNE 2.5mph /  4km/h 7mph /  11.3km/h 73% 0.00in /  0mm 46 W/m2
09:14 32.1 °F /  0.1 °C 24.4 °F /  -4.2 °C 30.22in /  1023.2hPa NE 1.8mph /  2.9km/h 7mph /  11.3km/h 72.8% 0.00in /  0mm 46 W/m2
09:19 32.1 °F /  0.1 °C 24.2 °F /  -4.3 °C 30.23in /  1023.6hPa NNW 3.8mph /  6.1km/h 11mph /  17.7km/h 72.2% 0.00in /  0mm 49 W/m2
09:24 32.1 °F /  0.1 °C 24.1 °F /  -4.4 °C 30.23in /  1023.6hPa NNE 1.6mph /  2.6km/h 11mph /  17.7km/h 72% 0.00in /  0mm 49 W/m2
09:29 32.1 °F /  0.1 °C 24.4 °F /  -4.2 °C 30.22in /  1023.2hPa NE 1.8mph /  2.9km/h 11mph /  17.7km/h 72.8% 0.00in /  0mm 54 W/m2
09:34 32.1 °F /  0.1 °C 24.4 °F /  -4.2 °C 30.22in /  1023.2hPa NNE 1.9mph /  3.1km/h 11mph /  17.7km/h 73% 0.00in /  0mm 56 W/m2
09:39 32.1 °F /  0.1 °C 24.6 °F /  -4.1 °C 30.22in /  1023.2hPa NNE 1.7mph /  2.7km/h 6mph /  9.7km/h 73.5% 0.00in /  0mm 65 W/m2
09:44 32 °F /  0 °C 24.8 °F /  -4 °C 30.22in /  1023.2hPa NNE 1.3mph /  2.1km/h 6mph /  9.7km/h 74.4% 0.00in /  0mm 84 W/m2
09:49 32.1 °F /  0.1 °C 25 °F /  -3.9 °C 30.22in /  1023.2hPa NE 1.1mph /  1.8km/h 6mph /  9.7km/h 74.7% 0.00in /  0mm 121 W/m2
09:54 32.1 °F /  0.1 °C 25.1 °F /  -3.8 °C 30.22in /  1023.2hPa NE 1.4mph /  2.3km/h 6mph /  9.7km/h 75.2% 0.00in /  0mm 148 W/m2
09:59 32.2 °F /  0.1 °C 25.5 °F /  -3.6 °C 30.21in /  1022.9hPa North 1.7mph /  2.7km/h 6mph /  9.7km/h 76% 0.00in /  0mm 114 W/m2
10:04 32.4 °F /  0.2 °C 25.7 °F /  -3.5 °C 30.21in /  1022.9hPa North 1.7mph /  2.7km/h 6mph /  9.7km/h 76% 0.00in /  0mm 84 W/m2
10:09 32.4 °F /  0.2 °C 25.6 °F /  -3.6 °C 30.21in /  1022.9hPa NNW 2.4mph /  3.9km/h 5mph /  8km/h 75.8% 0.00in /  0mm 74 W/m2
10:14 32.4 °F /  0.2 °C 25.7 °F /  -3.5 °C 30.21in /  1022.9hPa NNW 0.9mph /  1.4km/h 6mph /  9.7km/h 76% 0.00in /  0mm 69 W/m2
10:19 32.4 °F /  0.2 °C 25.7 °F /  -3.5 °C 30.21in /  1022.9hPa NNE 2.8mph /  4.5km/h 6mph /  9.7km/h 76% 0.00in /  0mm 83 W/m2
10:24 32.4 °F /  0.2 °C 25.5 °F /  -3.6 °C 30.20in /  1022.6hPa North 3mph /  4.8km/h 7mph /  11.3km/h 75.3% 0.00in /  0mm 118 W/m2
10:29 32.4 °F /  0.2 °C 25.7 °F /  -3.5 °C 30.20in /  1022.6hPa North 3.2mph /  5.1km/h 12mph /  19.3km/h 75.8% 0.00in /  0mm 130 W/m2
10:34 32.5 °F /  0.3 °C 26.2 °F /  -3.2 °C 30.20in /  1022.6hPa NNW 1.7mph /  2.7km/h 12mph /  19.3km/h 77.3% 0.00in /  0mm 146 W/m2
10:39 32.7 °F /  0.4 °C 26.6 °F /  -3 °C 30.20in /  1022.6hPa North 2.2mph /  3.5km/h 7mph /  11.3km/h 78% 0.00in /  0mm 132 W/m2
10:44 32.9 °F /  0.5 °C 26.8 °F /  -2.9 °C 30.21in /  1022.9hPa North 2.3mph /  3.7km/h 7mph /  11.3km/h 78.1% 0.00in /  0mm 114 W/m2
10:49 33 °F /  0.6 °C 26.9 °F /  -2.8 °C 30.21in /  1022.9hPa NNW 1.6mph /  2.6km/h 7mph /  11.3km/h 77.9% 0.00in /  0mm 111 W/m2
10:54 33 °F /  0.6 °C 26.7 °F /  -2.9 °C 30.22in /  1023.2hPa NNW 2mph /  3.2km/h 7mph /  11.3km/h 77.5% 0.00in /  0mm 91 W/m2
10:59 33 °F /  0.6 °C 26.6 °F /  -3 °C 30.22in /  1023.2hPa North 2.3mph /  3.7km/h 7mph /  11.3km/h 77% 0.00in /  0mm 88 W/m2
11:04 32.8 °F /  0.4 °C 26.3 °F /  -3.2 °C 30.22in /  1023.2hPa NW 3.1mph /  5km/h 7mph /  11.3km/h 76.8% 0.00in /  0mm 86 W/m2
11:09 32.6 °F /  0.3 °C 26.2 °F /  -3.2 °C 30.21in /  1022.9hPa NNW 2.1mph /  3.4km/h 6mph /  9.7km/h 77% 0.00in /  0mm 81 W/m2
11:14 32.5 °F /  0.3 °C 26.1 °F /  -3.3 °C 30.21in /  1022.9hPa NNW 1.5mph /  2.4km/h 6mph /  9.7km/h 77% 0.00in /  0mm 72 W/m2
11:19 32.5 °F /  0.3 °C 26.4 °F /  -3.1 °C 30.21in /  1022.9hPa NNW 3.2mph /  5.1km/h 8mph /  12.9km/h 77.9% 0.00in /  0mm 77 W/m2
11:24 32.5 °F /  0.3 °C 26.3 °F /  -3.2 °C 30.20in /  1022.6hPa NNW 2.1mph /  3.4km/h 8mph /  12.9km/h 77.7% 0.00in /  0mm 100 W/m2
11:29 32.5 °F /  0.3 °C 26.4 °F /  -3.1 °C 30.20in /  1022.6hPa NNE 0.5mph /  0.8km/h 8mph /  12.9km/h 78% 0.00in /  0mm 107 W/m2
11:34 32.6 °F /  0.3 °C 26.3 °F /  -3.2 °C 30.20in /  1022.6hPa NNE 0.9mph /  1.4km/h 8mph /  12.9km/h 77.5% 0.00in /  0mm 107 W/m2
11:39 32.6 °F /  0.3 °C 26.4 °F /  -3.1 °C 30.19in /  1022.2hPa North 1.6mph /  2.6km/h 6mph /  9.7km/h 77.5% 0.00in /  0mm 102 W/m2
11:44 32.7 °F /  0.4 °C 26.7 °F /  -2.9 °C 30.19in /  1022.2hPa NNW 1.3mph /  2.1km/h 6mph /  9.7km/h 78% 0.00in /  0mm 109 W/m2
11:49 32.9 °F /  0.5 °C 26.8 °F /  -2.9 °C 30.19in /  1022.2hPa NNW 0.7mph /  1.1km/h 6mph /  9.7km/h 78% 0.00in /  0mm 114 W/m2
11:54 33.1 °F /  0.6 °C 27 °F /  -2.8 °C 30.19in /  1022.2hPa North 2mph /  3.2km/h 6mph /  9.7km/h 77.9% 0.00in /  0mm 102 W/m2
11:59 33.2 °F /  0.7 °C 26.8 °F /  -2.9 °C 30.19in /  1022.2hPa NNW 1.3mph /  2.1km/h 6mph /  9.7km/h 76.8% 0.00in /  0mm 91 W/m2
12:00 33.3 °F /  0.7 °C 26.6 °F /  -3 °C 30.19in /  1022.2hPa Calm   6mph /  9.7km/h 76% 0.00in /  0mm 91 W/m2
12:09 33.3 °F /  0.7 °C 26.6 °F /  -3 °C 30.18in /  1021.9hPa North 2.8mph /  4.5km/h 6mph /  9.7km/h 76% 0.00in /  0mm 105 W/m2
12:14 33.3 °F /  0.7 °C 26.6 °F /  -3 °C 30.18in /  1021.9hPa North 0.6mph /  1km/h 6mph /  9.7km/h 76% 0.00in /  0mm 105 W/m2
12:19 33.4 °F /  0.8 °C 26.5 °F /  -3.1 °C 30.18in /  1021.9hPa North 1.3mph /  2.1km/h 6mph /  9.7km/h 75.6% 0.00in /  0mm 102 W/m2
12:24 33.5 °F /  0.8 °C 26.7 °F /  -2.9 °C 30.17in /  1021.6hPa NNW 1.1mph /  1.8km/h 6mph /  9.7km/h 76% 0.00in /  0mm 107 W/m2
12:29 33.6 °F /  0.9 °C 26.7 °F /  -2.9 °C 30.17in /  1021.6hPa NNE 2.4mph /  3.9km/h 6mph /  9.7km/h 75.4% 0.00in /  0mm 116 W/m2
12:34 33.8 °F /  1 °C 26.6 °F /  -3 °C 30.17in /  1021.6hPa NNE 2.4mph /  3.9km/h 6mph /  9.7km/h 74.8% 0.00in /  0mm 121 W/m2
12:39 33.8 °F /  1 °C 26.5 °F /  -3.1 °C 30.17in /  1021.6hPa NE 1.4mph /  2.3km/h 6mph /  9.7km/h 74.1% 0.00in /  0mm 121 W/m2
12:44 33.8 °F /  1 °C 26.4 °F /  -3.1 °C 30.18in /  1021.9hPa North 1.9mph /  3.1km/h 6mph /  9.7km/h 74% 0.00in /  0mm 105 W/m2
12:49 33.9 °F /  1.1 °C 26.5 °F /  -3.1 °C 30.18in /  1021.9hPa North 1.3mph /  2.1km/h 6mph /  9.7km/h 74% 0.00in /  0mm 93 W/m2
12:54 33.9 °F /  1.1 °C 26.6 °F /  -3 °C 30.18in /  1021.9hPa NNW 2.2mph /  3.5km/h 6mph /  9.7km/h 74.4% 0.00in /  0mm 109 W/m2
12:59 34 °F /  1.1 °C 26.9 °F /  -2.8 °C 30.17in /  1021.6hPa NNE 1.6mph /  2.6km/h 6mph /  9.7km/h 75% 0.00in /  0mm 109 W/m2
13:04 34 °F /  1.1 °C 27 °F /  -2.8 °C 30.17in /  1021.6hPa NE 0.8mph /  1.3km/h 6mph /  9.7km/h 75.2% 0.00in /  0mm 104 W/m2
13:09 34 °F /  1.1 °C 27.1 °F /  -2.7 °C 30.17in /  1021.6hPa NE 1.1mph /  1.8km/h 5mph /  8km/h 75.4% 0.00in /  0mm 100 W/m2
13:14 34.1 °F /  1.2 °C 27.4 °F /  -2.6 °C 30.17in /  1021.6hPa North 1.6mph /  2.6km/h 6mph /  9.7km/h 76% 0.00in /  0mm 118 W/m2
13:19 34.2 °F /  1.2 °C 27.5 °F /  -2.5 °C 30.17in /  1021.6hPa North 1.3mph /  2.1km/h 6mph /  9.7km/h 76% 0.00in /  0mm 132 W/m2
13:24 34.3 °F /  1.3 °C 27.7 °F /  -2.4 °C 30.16in /  1021.2hPa NE 1.5mph /  2.4km/h 6mph /  9.7km/h 76.4% 0.00in /  0mm 156 W/m2
13:29 34.4 °F /  1.3 °C 27.7 °F /  -2.4 °C 30.16in /  1021.2hPa NE 2.1mph /  3.4km/h 6mph /  9.7km/h 76.3% 0.00in /  0mm 156 W/m2
13:34 34.3 °F /  1.3 °C 27.6 °F /  -2.4 °C 30.16in /  1021.2hPa NE 1.7mph /  2.7km/h 6mph /  9.7km/h 76.3% 0.00in /  0mm 135 W/m2
13:39 34.2 °F /  1.2 °C 27.9 °F /  -2.3 °C 30.17in /  1021.6hPa NE 0.9mph /  1.4km/h 5mph /  8km/h 77.4% 0.00in /  0mm 121 W/m2
13:44 34.2 °F /  1.2 °C 28.1 °F /  -2.2 °C 30.17in /  1021.6hPa NE 1.6mph /  2.6km/h 5mph /  8km/h 78% 0.00in /  0mm 155 W/m2
13:49 34.1 °F /  1.2 °C 27.8 °F /  -2.3 °C 30.17in /  1021.6hPa NNE 1.8mph /  2.9km/h 5mph /  8km/h 77.3% 0.00in /  0mm 141 W/m2
13:54 34.2 °F /  1.2 °C 28 °F /  -2.2 °C 30.17in /  1021.6hPa North 1.7mph /  2.7km/h 5mph /  8km/h 78% 0.00in /  0mm 141 W/m2
13:59 34.3 °F /  1.3 °C 28.2 °F /  -2.1 °C 30.17in /  1021.6hPa NW 3.2mph /  5.1km/h 9mph /  14.5km/h 78% 0.00in /  0mm 98 W/m2
14:04 34.3 °F /  1.3 °C 28.2 °F /  -2.1 °C 30.16in /  1021.2hPa NNW 2.7mph /  4.3km/h 9mph /  14.5km/h 78% 0.00in /  0mm 118 W/m2
14:09 34.2 °F /  1.2 °C 28.1 °F /  -2.2 °C 30.16in /  1021.2hPa NW 2.6mph /  4.2km/h 6mph /  9.7km/h 78% 0.00in /  0mm 113 W/m2
14:14 34.2 °F /  1.2 °C 28.3 °F /  -2.1 °C 30.16in /  1021.2hPa NNW 1.6mph /  2.6km/h 7mph /  11.3km/h 78.7% 0.00in /  0mm 113 W/m2
14:19 34.2 °F /  1.2 °C 28.4 °F /  -2 °C 30.16in /  1021.2hPa NW 2.9mph /  4.7km/h 9mph /  14.5km/h 79% 0.00in /  0mm 98 W/m2
14:24 34 °F /  1.1 °C 28.2 °F /  -2.1 °C 30.17in /  1021.6hPa NW 2.8mph /  4.5km/h 9mph /  14.5km/h 79% 0.00in /  0mm 86 W/m2
14:29 33.8 °F /  1 °C 28.2 °F /  -2.1 °C 30.17in /  1021.6hPa NW 4.2mph /  6.8km/h 9mph /  14.5km/h 79.8% 0.00in /  0mm 86 W/m2
14:34 33.5 °F /  0.8 °C 28.2 °F /  -2.1 °C 30.17in /  1021.6hPa NW 2.8mph /  4.5km/h 9mph /  14.5km/h 80.5% 0.00in /  0mm 60 W/m2
14:39 33.4 °F /  0.8 °C 28.3 °F /  -2.1 °C 30.17in /  1021.6hPa NNW 2.2mph /  3.5km/h 6mph /  9.7km/h 81.4% 0.00in /  0mm 74 W/m2
14:44 33.3 °F /  0.7 °C 28.4 °F /  -2 °C 30.17in /  1021.6hPa NNW 2.1mph /  3.4km/h 6mph /  9.7km/h 82% 0.00in /  0mm 76 W/m2
14:49 33.4 °F /  0.8 °C 28.7 °F /  -1.8 °C 30.17in /  1021.6hPa NNW 2.6mph /  4.2km/h 7mph /  11.3km/h 82.7% 0.00in /  0mm 62 W/m2
14:54 33.4 °F /  0.8 °C 28.9 °F /  -1.7 °C 30.18in /  1021.9hPa North 1.8mph /  2.9km/h 7mph /  11.3km/h 83.4% 0.00in /  0mm 51 W/m2
14:59 33.5 °F /  0.8 °C 29.2 °F /  -1.6 °C 30.17in /  1021.6hPa NNW 1.8mph /  2.9km/h 7mph /  11.3km/h 84% 0.00in /  0mm 53 W/m2
15:04 33.4 °F /  0.8 °C 29.1 °F /  -1.6 °C 30.17in /  1021.6hPa Calm   7mph /  11.3km/h 84% 0.00in /  0mm 51 W/m2
15:09 33.4 °F /  0.8 °C 29.4 °F /  -1.4 °C 30.17in /  1021.6hPa North 0.5mph /  0.8km/h 4mph /  6.4km/h 85% 0.00in /  0mm 46 W/m2
15:14 33.3 °F /  0.7 °C 29.5 °F /  -1.4 °C 30.17in /  1021.6hPa North 0.9mph /  1.4km/h 5mph /  8km/h 85.6% 0.00in /  0mm 42 W/m2
15:19 33.3 °F /  0.7 °C 29.5 °F /  -1.4 °C 30.16in /  1021.2hPa North 0.7mph /  1.1km/h 5mph /  8km/h 86% 0.00in /  0mm 65 W/m2
15:24 33.2 °F /  0.7 °C 29.7 °F /  -1.3 °C 30.15in /  1020.9hPa North 0.4mph /  0.6km/h 5mph /  8km/h 86.7% 0.00in /  0mm 83 W/m2
15:29 33.2 °F /  0.7 °C 29.7 °F /  -1.3 °C 30.15in /  1020.9hPa North 0.3mph /  0.5km/h 5mph /  8km/h 87% 0.01in /  0.25mm 83 W/m2
15:34 33.2 °F /  0.7 °C 30 °F /  -1.1 °C 30.16in /  1021.2hPa North 0.5mph /  0.8km/h 5mph /  8km/h 87.9% 0.01in /  0.25mm 70 W/m2
15:39 33.2 °F /  0.7 °C 30.2 °F /  -1 °C 30.16in /  1021.2hPa North 1.5mph /  2.4km/h 4mph /  6.4km/h 88.5% 0.01in /  0.25mm 44 W/m2
15:44 33.3 °F /  0.7 °C 30.4 °F /  -0.9 °C 30.16in /  1021.2hPa North 1.3mph /  2.1km/h 4mph /  6.4km/h 89% 0.01in /  0.25mm 33 W/m2
15:49 33.2 °F /  0.7 °C 30.4 °F /  -0.9 °C 30.16in /  1021.2hPa NNW 1.6mph /  2.6km/h 4mph /  6.4km/h 89% 0.01in /  0.25mm 30 W/m2
15:54 33.2 °F /  0.7 °C 30.3 °F /  -0.9 °C 30.16in /  1021.2hPa NNW 1.4mph /  2.3km/h 5mph /  8km/h 89% 0.01in /  0.25mm 26 W/m2
15:59 33 °F /  0.6 °C 30.1 °F /  -1.1 °C 30.17in /  1021.6hPa NNW 1.1mph /  1.8km/h 5mph /  8km/h 89% 0.01in /  0.25mm 18 W/m2
16:00 32.9 °F /  0.5 °C 30 °F /  -1.1 °C 30.17in /  1021.6hPa Calm   5mph /  8km/h 89% 0.01in /  0.25mm 14 W/m2
16:09 32.8 °F /  0.4 °C 29.9 °F /  -1.2 °C 30.17in /  1021.6hPa North 3.3mph /  5.3km/h 7mph /  11.3km/h 89% 0.01in /  0.25mm 21 W/m2
16:14 32.6 °F /  0.3 °C 29.8 °F /  -1.2 °C 30.17in /  1021.6hPa North 2.2mph /  3.5km/h 7mph /  11.3km/h 89% 0.01in /  0.25mm 18 W/m2
16:19 32.6 °F /  0.3 °C 29.7 °F /  -1.3 °C 30.17in /  1021.6hPa NNE 0.8mph /  1.3km/h 7mph /  11.3km/h 89% 0.01in /  0.25mm 16 W/m2
16:24 32.5 °F /  0.3 °C 29.6 °F /  -1.3 °C 30.16in /  1021.2hPa North 0.9mph /  1.4km/h 7mph /  11.3km/h 89% 0.01in /  0.25mm 19 W/m2
16:29 32.5 °F /  0.3 °C 29.6 °F /  -1.3 °C 30.16in /  1021.2hPa NE 1mph /  1.6km/h 7mph /  11.3km/h 89% 0.01in /  0.25mm 28 W/m2
16:34 32.4 °F /  0.2 °C 29.6 °F /  -1.3 °C 30.16in /  1021.2hPa North 3.1mph /  5km/h 7mph /  11.3km/h 89% 0.01in /  0.25mm 32 W/m2
16:39 32.4 °F /  0.2 °C 29.5 °F /  -1.4 °C 30.17in /  1021.6hPa North 1.7mph /  2.7km/h 6mph /  9.7km/h 89% 0.00in /  0mm 30 W/m2
16:44 32.4 °F /  0.2 °C 29.6 °F /  -1.3 °C 30.17in /  1021.6hPa North 1.4mph /  2.3km/h 6mph /  9.7km/h 89.3% 0.00in /  0mm 18 W/m2
16:49 32.3 °F /  0.2 °C 29.7 °F /  -1.3 °C 30.16in /  1021.2hPa NE 0.5mph /  0.8km/h 6mph /  9.7km/h 90% 0.00in /  0mm 11 W/m2
16:54 32.3 °F /  0.2 °C 29.7 °F /  -1.3 °C 30.16in /  1021.2hPa NNE 1.7mph /  2.7km/h 9mph /  14.5km/h 90% 0.00in /  0mm 7 W/m2
16:59 32.2 °F /  0.1 °C 29.6 °F /  -1.3 °C 30.16in /  1021.2hPa NNE 1mph /  1.6km/h 9mph /  14.5km/h 90% 0.00in /  0mm 5 W/m2
17:04 32.2 °F /  0.1 °C 29.6 °F /  -1.3 °C 30.15in /  1020.9hPa NNE 1.5mph /  2.4km/h 9mph /  14.5km/h 90% 0.00in /  0mm 0 W/m2
17:09 32.1 °F /  0.1 °C 29.5 °F /  -1.4 °C 30.16in /  1021.2hPa NNW 1.6mph /  2.6km/h 7mph /  11.3km/h 90% 0.00in /  0mm 0 W/m2
17:14 32 °F /  0 °C 29.4 °F /  -1.4 °C 30.17in /  1021.6hPa NNW 0.9mph /  1.4km/h 7mph /  11.3km/h 90% 0.00in /  0mm 0 W/m2
17:19 32 °F /  0 °C 29.4 °F /  -1.4 °C 30.17in /  1021.6hPa NNW 1mph /  1.6km/h 7mph /  11.3km/h 90% 0.00in /  0mm 0 W/m2
17:24 32 °F /  0 °C 29.4 °F /  -1.4 °C 30.17in /  1021.6hPa North 1.9mph /  3.1km/h 7mph /  11.3km/h 90% 0.00in /  0mm 0 W/m2
17:29 31.9 °F /  -0.1 °C 29.5 °F /  -1.4 °C 30.17in /  1021.6hPa NE 0.9mph /  1.4km/h 7mph /  11.3km/h 90.5% 0.00in /  0mm 0 W/m2
17:34 31.9 °F /  -0.1 °C 29.4 °F /  -1.4 °C 30.17in /  1021.6hPa North 1.3mph /  2.1km/h 7mph /  11.3km/h 90.3% 0.00in /  0mm 0 W/m2
17:39 31.9 °F /  -0.1 °C 29.6 °F /  -1.3 °C 30.17in /  1021.6hPa North 0.7mph /  1.1km/h 4mph /  6.4km/h 91% 0.00in /  0mm 0 W/m2
17:44 31.9 °F /  -0.1 °C 29.6 °F /  -1.3 °C 30.18in /  1021.9hPa North 1.1mph /  1.8km/h 5mph /  8km/h 91% 0.00in /  0mm 0 W/m2
17:49 31.9 °F /  -0.1 °C 29.6 °F /  -1.3 °C 30.18in /  1021.9hPa North 1.8mph /  2.9km/h 6mph /  9.7km/h 91% 0.00in /  0mm 0 W/m2
17:54 31.9 °F /  -0.1 °C 29.6 °F /  -1.3 °C 30.18in /  1021.9hPa NNW 1.5mph /  2.4km/h 6mph /  9.7km/h 91% 0.00in /  0mm 0 W/m2
17:59 31.9 °F /  -0.1 °C 29.6 °F /  -1.3 °C 30.18in /  1021.9hPa NNW 0.6mph /  1km/h 6mph /  9.7km/h 91% 0.00in /  0mm 0 W/m2
18:04 31.9 °F /  -0.1 °C 29.5 °F /  -1.4 °C 30.19in /  1022.2hPa North 2.5mph /  4km/h 6mph /  9.7km/h 91% 0.00in /  0mm 0 W/m2
18:09 31.8 °F /  -0.1 °C 29.5 °F /  -1.4 °C 30.19in /  1022.2hPa North 2.6mph /  4.2km/h 5mph /  8km/h 91% 0.00in /  0mm 0 W/m2
18:14 31.8 °F /  -0.1 °C 29.5 °F /  -1.4 °C 30.19in /  1022.2hPa NNW 0.3mph /  0.5km/h 5mph /  8km/h 91% 0.00in /  0mm 0 W/m2
18:19 31.8 °F /  -0.1 °C 29.5 °F /  -1.4 °C 30.19in /  1022.2hPa NNE 0.2mph /  0.3km/h 5mph /  8km/h 91% 0.00in /  0mm 0 W/m2
18:24 31.8 °F /  -0.1 °C 29.5 °F /  -1.4 °C 30.19in /  1022.2hPa NNW 1.6mph /  2.6km/h 7mph /  11.3km/h 91% 0.00in /  0mm 0 W/m2
18:29 31.7 °F /  -0.2 °C 29.5 °F /  -1.4 °C 30.18in /  1021.9hPa Calm   7mph /  11.3km/h 91.3% 0.00in /  0mm 0 W/m2
18:34 31.7 °F /  -0.2 °C 29.4 °F /  -1.4 °C 30.18in /  1021.9hPa NNW 0.4mph /  0.6km/h 7mph /  11.3km/h 91.1% 0.00in /  0mm 0 W/m2
18:39 31.8 °F /  -0.1 °C 29.6 °F /  -1.3 °C 30.18in /  1021.9hPa North 0.2mph /  0.3km/h 3mph /  4.8km/h 91.4% 0.00in /  0mm 0 W/m2
18:44 31.8 °F /  -0.1 °C 29.8 °F /  -1.2 °C 30.17in /  1021.6hPa NE 1.1mph /  1.8km/h 5mph /  8km/h 92% 0.00in /  0mm 0 W/m2
18:49 31.8 °F /  -0.1 °C 29.8 °F /  -1.2 °C 30.17in /  1021.6hPa NE 1.8mph /  2.9km/h 6mph /  9.7km/h 92% 0.00in /  0mm 0 W/m2
18:54 31.7 °F /  -0.2 °C 29.7 °F /  -1.3 °C 30.17in /  1021.6hPa NE 1.5mph /  2.4km/h 6mph /  9.7km/h 92% 0.00in /  0mm 0 W/m2
18:59 31.7 °F /  -0.2 °C 29.7 °F /  -1.3 °C 30.17in /  1021.6hPa NNE 1.3mph /  2.1km/h 6mph /  9.7km/h 92% 0.00in /  0mm 0 W/m2
19:04 31.7 °F /  -0.2 °C 29.7 °F /  -1.3 °C 30.18in /  1021.9hPa NE 0.3mph /  0.5km/h 6mph /  9.7km/h 92% 0.00in /  0mm 0 W/m2
19:09 31.7 °F /  -0.2 °C 29.7 °F /  -1.3 °C 30.18in /  1021.9hPa NE 1.8mph /  2.9km/h 5mph /  8km/h 92% 0.00in /  0mm 0 W/m2
19:14 31.7 °F /  -0.2 °C 29.7 °F /  -1.3 °C 30.17in /  1021.6hPa NE 0.2mph /  0.3km/h 5mph /  8km/h 92% 0.00in /  0mm 0 W/m2
19:19 31.8 °F /  -0.1 °C 29.7 °F /  -1.3 °C 30.18in /  1021.9hPa NE 0.7mph /  1.1km/h 5mph /  8km/h 92% 0.00in /  0mm 0 W/m2
19:24 31.8 °F /  -0.1 °C 29.8 °F /  -1.2 °C 30.17in /  1021.6hPa North 1.9mph /  3.1km/h 5mph /  8km/h 92% 0.00in /  0mm 0 W/m2
19:29 31.8 °F /  -0.1 °C 29.8 °F /  -1.2 °C 30.17in /  1021.6hPa North 1.2mph /  1.9km/h 6mph /  9.7km/h 92% 0.00in /  0mm 0 W/m2
19:34 31.8 °F /  -0.1 °C 29.8 °F /  -1.2 °C 30.17in /  1021.6hPa North 1.1mph /  1.8km/h 6mph /  9.7km/h 92% 0.00in /  0mm 0 W/m2
19:39 31.8 °F /  -0.1 °C 29.8 °F /  -1.2 °C 30.17in /  1021.6hPa North 2mph /  3.2km/h 5mph /  8km/h 92% 0.00in /  0mm 0 W/m2
19:44 31.8 °F /  -0.1 °C 29.8 °F /  -1.2 °C 30.17in /  1021.6hPa NNE 1.2mph /  1.9km/h 5mph /  8km/h 92.3% 0.00in /  0mm 0 W/m2
19:49 31.8 °F /  -0.1 °C 30 °F /  -1.1 °C 30.17in /  1021.6hPa NNE 0.7mph /  1.1km/h 5mph /  8km/h 93% 0.00in /  0mm 0 W/m2
19:54 31.8 °F /  -0.1 °C 30.1 °F /  -1.1 °C 30.16in /  1021.2hPa North 1.2mph /  1.9km/h 5mph /  8km/h 93% 0.00in /  0mm 0 W/m2
19:59 31.9 °F /  -0.1 °C 30.1 °F /  -1.1 °C 30.16in /  1021.2hPa NNE 0.9mph /  1.4km/h 5mph /  8km/h 93% 0.00in /  0mm 0 W/m2
20:00 31.9 °F /  -0.1 °C 30.1 °F /  -1.1 °C 30.16in /  1021.2hPa NE 2mph /  3.2km/h 5mph /  8km/h 93% 0.00in /  0mm 0 W/m2
20:09 31.9 °F /  -0.1 °C 30.1 °F /  -1.1 °C 30.15in /  1020.9hPa NE 1.7mph /  2.7km/h 7mph /  11.3km/h 93% 0.00in /  0mm 0 W/m2
20:14 31.9 °F /  -0.1 °C 30.1 °F /  -1.1 °C 30.15in /  1020.9hPa NE 0.8mph /  1.3km/h 7mph /  11.3km/h 93% 0.00in /  0mm 0 W/m2
20:19 31.9 °F /  -0.1 °C 30.1 °F /  -1.1 °C 30.14in /  1020.5hPa NE 1.1mph /  1.8km/h 7mph /  11.3km/h 93% 0.00in /  0mm 0 W/m2
20:24 31.9 °F /  -0.1 °C 30.1 °F /  -1.1 °C 30.14in /  1020.5hPa NE 0.1mph /  0.2km/h 7mph /  11.3km/h 93% 0.00in /  0mm 0 W/m2
20:29 31.9 °F /  -0.1 °C 30.1 °F /  -1.1 °C 30.14in /  1020.5hPa NE 0.3mph /  0.5km/h 7mph /  11.3km/h 93% 0.00in /  0mm 0 W/m2
20:34 31.9 °F /  -0.1 °C 30.1 °F /  -1.1 °C 30.14in /  1020.5hPa NE 0.2mph /  0.3km/h 7mph /  11.3km/h 93% 0.00in /  0mm 0 W/m2
20:38 31.9 °F /  -0.1 °C 30.1 °F /  -1.1 °C 30.13in /  1020.2hPa NE 1mph /  1.6km/h 4mph /  6.4km/h 93% 0.00in /  0mm 0 W/m2
21:00 31.8 °F /  -0.1 °C 30 °F /  -1.1 °C 30.11in /  1019.5hPa NE 2mph /  3.2km/h 6mph /  9.7km/h 93% 0.00in /  0mm 0 W/m2
21:30 31.7 °F /  -0.2 °C 29.9 °F /  -1.2 °C 30.10in /  1019.2hPa NE 1mph /  1.6km/h 6mph /  9.7km/h 93% 0.00in /  0mm 0 W/m2
22:00 31.7 °F /  -0.2 °C 30.2 °F /  -1 °C 30.09in /  1018.8hPa NE 1mph /  1.6km/h 5mph /  8km/h 94% 0.00in /  0mm 0 W/m2
22:30 31.6 °F /  -0.2 °C 30.1 °F /  -1.1 °C 30.09in /  1018.8hPa Calm   4mph /  6.4km/h 94% 0.00in /  0mm 0 W/m2
23:04 31.6 °F /  -0.2 °C 30.1 °F /  -1.1 °C 30.09in /  1018.8hPa NE 0.2mph /  0.3km/h 4mph /  6.4km/h 94% 0.00in /  0mm 0 W/m2
23:09 31.6 °F /  -0.2 °C 30.1 °F /  -1.1 °C 30.06in /  1017.8hPa NE 0.1mph /  0.2km/h 2mph /  3.2km/h 94% 0.00in /  0mm 0 W/m2
23:14 31.6 °F /  -0.2 °C 30.1 °F /  -1.1 °C 30.05in /  1017.5hPa NE 0.7mph /  1.1km/h 4mph /  6.4km/h 94% 0.00in /  0mm 0 W/m2
23:19 31.5 °F /  -0.3 °C 30 °F /  -1.1 °C 30.05in /  1017.5hPa ENE 0.9mph /  1.4km/h 4mph /  6.4km/h 94% 0.00in /  0mm 0 W/m2
23:24 31.5 °F /  -0.3 °C 30 °F /  -1.1 °C 30.04in /  1017.2hPa NE 1.5mph /  2.4km/h 5mph /  8km/h 94% 0.00in /  0mm 0 W/m2
23:29 31.5 °F /  -0.3 °C 30 °F /  -1.1 °C 30.03in /  1016.8hPa NE 3.5mph /  5.6km/h 7mph /  11.3km/h 94% 0.00in /  0mm 0 W/m2
23:34 31.5 °F /  -0.3 °C 30 °F /  -1.1 °C 30.03in /  1016.8hPa NE 1.6mph /  2.6km/h 7mph /  11.3km/h 94% 0.00in /  0mm 0 W/m2
23:39 31.5 °F /  -0.3 °C 30 °F /  -1.1 °C 30.02in /  1016.5hPa NE 0.2mph /  0.3km/h 4mph /  6.4km/h 94% 0.00in /  0mm 0 W/m2
23:44 31.6 °F /  -0.2 °C 30.1 °F /  -1.1 °C 30.02in /  1016.5hPa NE 1mph /  1.6km/h 4mph /  6.4km/h 94% 0.00in /  0mm 0 W/m2
23:49 31.6 °F /  -0.2 °C 30.1 °F /  -1.1 °C 30.01in /  1016.1hPa NE 1.3mph /  2.1km/h 4mph /  6.4km/h 94% 0.00in /  0mm 0 W/m2
23:54 31.6 °F /  -0.2 °C 30.1 °F /  -1.1 °C 30.01in /  1016.1hPa NE 0.6mph /  1km/h 4mph /  6.4km/h 94% 0.00in /  0mm 0 W/m2
23:59 31.6 °F /  -0.2 °C 30.1 °F /  -1.1 °C 30.01in /  1016.1hPa Calm   4mph /  6.4km/h 94% 0.00in /  0mm 0 W/m2
Hartford County Weather
Compliments of Weather Underground - 2 mb